Time;durP1;ratioP1;P1;durP2;ratioP2;P2;SDS_P1;SDS_P2;PMS_P1;PMS_P2;Temp;Humidity;BMP_temperature;BMP_pressure;BME280_temperature;BME280_humidity;BME280_pressure;Samples;Min_cycle;Max_cycle;Signal;HPM_P1;HPM_P2
2022/03/07 00:01:16;;;;;;;8.32;3.17;;;0.90;99.90;;;;;;5104577;27;20107;-79
2022/03/07 00:03:42;;;;;;;8.13;2.90;;;0.90;99.90;;;;;;5121615;27;20038;-80
2022/03/07 00:06:07;;;;;;;4.20;3.10;;;0.90;99.90;;;;;;5157049;27;20043;-80
2022/03/07 00:08:33;;;;;;;7.13;3.47;;;0.80;99.90;;;;;;5156665;27;20038;-79
2022/03/07 00:10:59;;;;;;;7.45;3.40;;;0.80;99.90;;;;;;5137635;27;20045;-78
2022/03/07 00:13:24;;;;;;;5.68;3.00;;;0.80;99.90;;;;;;5138978;27;20038;-79
2022/03/07 00:15:50;;;;;;;7.78;3.25;;;0.70;99.90;;;;;;5121294;27;20146;-79
2022/03/07 00:18:16;;;;;;;7.65;3.28;;;0.80;99.90;;;;;;5138900;27;20081;-79
2022/03/07 00:20:42;;;;;;;6.93;3.33;;;0.70;99.90;;;;;;5104113;27;20041;-79
2022/03/07 00:23:11;;;;;;;6.80;2.88;;;0.70;99.90;;;;;;5156813;27;20054;-79
2022/03/07 00:25:38;;;;;;;6.97;3.00;;;0.70;99.90;;;;;;5156463;27;20094;-80
2022/03/07 00:28:04;;;;;;;5.32;3.10;;;0.70;99.90;;;;;;5156912;27;20050;-79
2022/03/07 00:30:30;;;;;;;6.28;3.30;;;0.60;99.90;;;;;;5156594;27;20410;-82
2022/03/07 00:32:55;;;;;;;7.13;3.20;;;0.70;99.90;;;;;;5138270;27;20054;-79
2022/03/07 00:35:21;;;;;;;7.47;3.83;;;0.60;99.90;;;;;;5138280;27;20046;-79
2022/03/07 00:37:46;;;;;;;8.23;3.25;;;0.50;99.90;;;;;;5156291;27;20066;-80
2022/03/07 00:40:12;;;;;;;4.93;2.92;;;0.50;99.90;;;;;;5156681;27;20038;-80
2022/03/07 00:42:38;;;;;;;5.70;2.92;;;0.50;99.90;;;;;;5120535;27;20122;-80
2022/03/07 00:45:07;;;;;;;6.15;2.97;;;0.40;99.90;;;;;;5156611;27;20042;-79
2022/03/07 00:47:33;;;;;;;4.78;2.70;;;0.40;99.90;;;;;;5137626;27;20043;-80
2022/03/07 00:49:58;;;;;;;9.13;3.65;;;0.40;99.90;;;;;;5156436;27;20398;-78
2022/03/07 00:52:24;;;;;;;7.00;3.00;;;0.40;99.90;;;;;;5156768;27;20047;-77
2022/03/07 00:54:50;;;;;;;7.43;3.03;;;0.40;99.90;;;;;;5156304;27;20034;-77
2022/03/07 00:57:15;;;;;;;6.57;2.75;;;0.40;99.90;;;;;;5121368;27;20034;-77
2022/03/07 00:59:41;;;;;;;7.72;2.80;;;0.40;99.90;;;;;;5156082;27;20038;-79
2022/03/07 01:02:06;;;;;;;5.88;2.83;;;0.40;99.90;;;;;;5138119;27;20126;-80
2022/03/07 01:04:32;;;;;;;3.17;2.75;;;0.50;99.90;;;;;;5137835;27;20045;-79
2022/03/07 01:06:58;;;;;;;4.90;2.83;;;0.40;99.90;;;;;;5155423;27;20094;-79
2022/03/07 01:09:23;;;;;;;5.82;2.67;;;0.40;99.90;;;;;;5156075;27;20103;-79
2022/03/07 01:11:49;;;;;;;6.22;2.63;;;0.40;99.90;;;;;;5155414;27;20049;-79
2022/03/07 01:14:15;;;;;;;4.72;2.60;;;0.30;99.90;;;;;;5137905;27;20047;-79
2022/03/07 01:16:40;;;;;;;3.35;2.47;;;0.30;99.90;;;;;;5155699;27;20179;-79
2022/03/07 01:19:06;;;;;;;4.80;2.22;;;0.30;99.90;;;;;;5155757;27;20043;-80
2022/03/07 01:21:32;;;;;;;4.40;2.30;;;0.20;99.90;;;;;;5137286;27;20050;-79
2022/03/07 01:23:57;;;;;;;5.10;2.60;;;0.20;99.90;;;;;;5137017;27;20136;-78
2022/03/07 01:26:23;;;;;;;4.00;2.38;;;0.20;99.90;;;;;;5137262;27;20050;-78
2022/03/07 01:28:48;;;;;;;5.78;2.45;;;0.20;99.90;;;;;;5155238;27;20130;-79
2022/03/07 01:31:14;;;;;;;5.10;2.83;;;0.10;99.90;;;;;;5155397;27;20031;-79
2022/03/07 01:33:40;;;;;;;5.47;2.40;;;0.10;99.90;;;;;;5155163;27;20137;-79
2022/03/07 01:36:06;;;;;;;3.22;2.20;;;0.10;99.90;;;;;;5155608;27;20087;-79
2022/03/07 01:38:31;;;;;;;6.05;2.25;;;0.20;99.90;;;;;;5120001;27;20475;-79
2022/03/07 01:40:57;;;;;;;5.10;2.30;;;0.20;99.90;;;;;;5154793;27;20472;-78
2022/03/07 01:43:23;;;;;;;3.90;2.13;;;0.10;99.90;;;;;;5137044;27;20046;-78
2022/03/07 01:45:49;;;;;;;4.10;2.17;;;0.20;99.90;;;;;;5154910;27;20054;-79
2022/03/07 01:48:14;;;;;;;3.47;1.98;;;0.10;99.90;;;;;;5136953;27;20051;-79
2022/03/07 01:50:40;;;;;;;5.65;2.85;;;0.10;99.90;;;;;;5154617;27;20403;-79
2022/03/07 01:53:06;;;;;;;5.22;2.33;;;0.10;99.90;;;;;;5136625;27;20046;-79
2022/03/07 01:55:32;;;;;;;4.85;2.60;;;0.10;99.90;;;;;;5136794;27;20523;-79
2022/03/07 01:57:58;;;;;;;4.35;2.22;;;0.00;99.90;;;;;;5154587;27;20050;-78
2022/03/07 02:00:25;;;;;;;6.68;2.20;;;0.10;99.90;;;;;;5119607;27;20394;-79
2022/03/07 02:02:50;;;;;;;4.22;2.78;;;0.10;99.90;;;;;;5154601;27;20051;-79
2022/03/07 02:05:16;;;;;;;4.43;2.30;;;0.00;99.90;;;;;;5136319;27;20075;-79
2022/03/07 02:07:42;;;;;;;5.10;2.60;;;0.00;99.90;;;;;;5154326;27;20064;-79
2022/03/07 02:10:08;;;;;;;4.07;2.30;;;0.00;99.90;;;;;;5135750;27;20039;-79
2022/03/07 02:12:34;;;;;;;7.68;2.60;;;-0.10;99.90;;;;;;5135993;27;20048;-79
2022/03/07 02:15:00;;;;;;;4.93;2.28;;;-0.10;99.90;;;;;;5154405;27;20042;-77
2022/03/07 02:17:25;;;;;;;3.88;2.42;;;-0.10;99.90;;;;;;5154490;27;20050;-78
2022/03/07 02:19:51;;;;;;;3.85;2.50;;;-0.10;99.90;;;;;;5135956;27;20053;-79
2022/03/07 02:22:17;;;;;;;4.97;2.50;;;-0.20;99.90;;;;;;5154632;27;20047;-76
2022/03/07 02:24:43;;;;;;;3.95;2.38;;;-0.20;99.90;;;;;;5136627;27;20082;-76
2022/03/07 02:27:09;;;;;;;5.47;2.40;;;-0.20;99.90;;;;;;5135916;27;20053;-76
2022/03/07 02:29:35;;;;;;;5.70;2.90;;;-0.30;99.90;;;;;;5119145;27;20130;-78
2022/03/07 02:32:01;;;;;;;5.43;3.05;;;-0.20;99.90;;;;;;5118241;27;20118;-79
2022/03/07 02:34:26;;;;;;;4.78;2.88;;;-0.20;99.90;;;;;;5153968;27;20046;-79
2022/03/07 02:36:52;;;;;;;6.35;2.70;;;-0.20;99.90;;;;;;5135961;27;20493;-79
2022/03/07 02:39:18;;;;;;;5.28;3.08;;;-0.20;99.90;;;;;;5136012;27;20047;-78
2022/03/07 02:41:44;;;;;;;4.07;2.90;;;-0.20;99.90;;;;;;5135779;27;20047;-78
2022/03/07 02:44:09;;;;;;;4.53;2.55;;;-0.30;99.90;;;;;;5153843;27;20042;-79
2022/03/07 02:46:35;;;;;;;5.60;3.10;;;-0.30;99.90;;;;;;5135804;27;20080;-78
2022/03/07 02:49:01;;;;;;;5.82;2.88;;;-0.40;99.90;;;;;;5154049;27;20045;-79
2022/03/07 02:51:27;;;;;;;5.80;3.03;;;-0.40;99.90;;;;;;5154138;27;20043;-79
2022/03/07 02:53:52;;;;;;;4.38;2.90;;;-0.40;99.90;;;;;;5153812;27;20062;-79
2022/03/07 02:56:18;;;;;;;5.28;2.72;;;-0.40;99.90;;;;;;5154292;27;20046;-79
2022/03/07 02:58:44;;;;;;;6.20;2.75;;;-0.40;99.90;;;;;;5154573;27;20050;-78
2022/03/07 03:01:09;;;;;;;4.40;2.78;;;-0.50;99.90;;;;;;5153463;27;20047;-78
2022/03/07 03:03:35;;;;;;;4.25;2.67;;;-0.50;99.90;;;;;;5154236;27;20050;-78
2022/03/07 03:06:01;;;;;;;5.63;3.00;;;-0.50;99.90;;;;;;5135236;27;20144;-80
2022/03/07 03:08:26;;;;;;;10.73;3.10;;;-0.60;99.90;;;;;;5153957;27;20065;-78
2022/03/07 03:10:52;;;;;;;6.30;3.10;;;-0.60;99.90;;;;;;5153608;27;20035;-80
2022/03/07 03:13:20;;;;;;;5.72;3.25;;;-0.60;99.90;;;;;;5154079;27;20043;-79
2022/03/07 03:15:46;;;;;;;8.90;2.92;;;-0.60;99.90;;;;;;5102043;27;20106;-79
2022/03/07 03:18:12;;;;;;;5.70;2.97;;;-0.50;99.90;;;;;;5153425;27;20133;-79
2022/03/07 03:20:37;;;;;;;6.40;2.80;;;-0.50;99.90;;;;;;5118506;27;20459;-79
2022/03/07 03:23:03;;;;;;;8.70;2.90;;;-0.50;99.90;;;;;;5134886;27;20082;-79
2022/03/07 03:25:29;;;;;;;4.53;3.17;;;-0.50;99.90;;;;;;5118088;27;20054;-79
2022/03/07 03:27:54;;;;;;;7.20;2.90;;;-0.50;99.90;;;;;;5135345;27;20086;-81
2022/03/07 03:30:20;;;;;;;6.97;3.10;;;-0.50;99.90;;;;;;5153992;27;20428;-79
2022/03/07 03:32:45;;;;;;;5.80;2.75;;;-0.50;99.90;;;;;;5153579;27;20046;-79
2022/03/07 03:35:11;;;;;;;5.93;2.85;;;-0.50;99.90;;;;;;5153283;27;20069;-79
2022/03/07 03:37:37;;;;;;;4.70;2.90;;;-0.50;99.90;;;;;;5135216;27;20049;-79
2022/03/07 03:40:04;;;;;;;6.38;3.00;;;-0.50;99.90;;;;;;5101256;27;20133;-79
2022/03/07 03:42:30;;;;;;;4.68;2.63;;;-0.50;99.90;;;;;;5135209;27;20039;-79
2022/03/07 03:44:55;;;;;;;4.05;2.38;;;-0.60;99.90;;;;;;5136601;27;20099;-79
2022/03/07 03:47:21;;;;;;;5.70;2.50;;;-0.60;99.90;;;;;;5138645;27;20053;-78
2022/03/07 03:49:46;;;;;;;5.80;2.67;;;-0.70;99.90;;;;;;5157854;27;20059;-77
2022/03/07 03:52:12;;;;;;;6.72;3.30;;;-0.70;99.90;;;;;;5139173;27;20368;-76
2022/03/07 03:54:38;;;;;;;5.28;2.70;;;-0.70;99.90;;;;;;5139574;27;20042;-77
2022/03/07 03:57:04;;;;;;;4.13;2.83;;;-0.70;99.90;;;;;;5138925;27;20039;-79
2022/03/07 03:59:31;;;;;;;5.82;3.15;;;-0.80;99.90;;;;;;5139195;27;20535;-79
2022/03/07 04:01:57;;;;;;;4.88;2.58;;;-0.80;99.90;;;;;;5139528;27;20063;-79
2022/03/07 04:04:23;;;;;;;5.10;2.58;;;-0.80;99.90;;;;;;5138626;27;20130;-78
2022/03/07 04:06:48;;;;;;;5.60;2.70;;;-0.80;99.90;;;;;;5157305;27;20038;-78
2022/03/07 04:09:18;;;;;;;3.22;2.50;;;-0.80;99.90;;;;;;5138720;27;20391;-79
2022/03/07 04:11:44;;;;;;;3.20;2.10;;;-0.80;99.90;;;;;;5138905;27;20123;-79
2022/03/07 04:14:10;;;;;;;4.93;2.67;;;-0.80;99.90;;;;;;5138174;27;20096;-79
2022/03/07 04:16:38;;;;;;;4.05;2.70;;;-0.80;99.90;;;;;;5138750;27;20046;-79
2022/03/07 04:19:07;;;;;;;4.38;2.58;;;-0.90;99.90;;;;;;5138319;27;20039;-80
2022/03/07 04:21:33;;;;;;;3.47;2.70;;;-0.90;99.90;;;;;;5121792;27;20047;-79
2022/03/07 04:23:59;;;;;;;4.13;2.70;;;-0.90;99.90;;;;;;5157053;27;20054;-79
2022/03/07 04:26:25;;;;;;;5.18;2.70;;;-0.90;99.90;;;;;;5138164;27;20039;-79
2022/03/07 04:28:50;;;;;;;3.60;2.88;;;-0.90;99.90;;;;;;5138600;27;20119;-79
2022/03/07 04:31:16;;;;;;;5.68;2.95;;;-0.90;99.90;;;;;;5156457;27;20046;-79
2022/03/07 04:33:42;;;;;;;6.10;3.10;;;-0.90;99.90;;;;;;5156978;27;20050;-79
2022/03/07 04:36:07;;;;;;;6.88;3.70;;;-0.90;99.90;;;;;;5120559;27;20062;-79
2022/03/07 04:38:34;;;;;;;6.40;3.40;;;-0.90;99.90;;;;;;5138361;27;20057;-79
2022/03/07 04:40:59;;;;;;;3.67;3.00;;;-0.90;99.90;;;;;;5156686;27;20043;-79
2022/03/07 04:43:25;;;;;;;5.32;3.40;;;-0.90;99.90;;;;;;5138067;27;20467;-79
2022/03/07 04:45:53;;;;;;;6.25;3.05;;;-0.90;99.90;;;;;;5138261;27;20134;-78
2022/03/07 04:48:20;;;;;;;7.05;3.17;;;-0.90;99.90;;;;;;5156076;27;20434;-79
2022/03/07 04:50:46;;;;;;;5.13;3.03;;;-0.90;99.90;;;;;;5156259;27;20046;-78
2022/03/07 04:53:11;;;;;;;4.50;2.92;;;-1.00;99.90;;;;;;5137645;27;20490;-79
2022/03/07 04:55:37;;;;;;;8.48;3.20;;;-1.00;99.90;;;;;;5137844;27;20519;-79
2022/03/07 04:58:03;;;;;;;6.97;3.17;;;-1.00;99.90;;;;;;5137556;27;20042;-79
2022/03/07 05:00:28;;;;;;;5.60;3.63;;;-1.00;99.90;;;;;;5155780;27;20513;-79
2022/03/07 05:02:54;;;;;;;5.97;3.45;;;-1.00;99.90;;;;;;5156206;27;20368;-78
2022/03/07 05:05:20;;;;;;;6.35;3.40;;;-1.00;99.90;;;;;;5155666;27;20534;-79
2022/03/07 05:07:49;;;;;;;4.60;3.65;;;-1.00;99.90;;;;;;5120607;27;20537;-78
2022/03/07 05:10:16;;;;;;;5.43;3.00;;;-1.00;99.90;;;;;;5155600;27;20379;-79
2022/03/07 05:12:42;;;;;;;4.80;3.33;;;-1.00;99.90;;;;;;5155894;27;20035;-77
2022/03/07 05:15:08;;;;;;;4.40;3.22;;;-1.00;99.90;;;;;;5155625;27;20050;-76
2022/03/07 05:17:56;;;;;;;5.00;3.25;;;-1.00;99.90;;;;;;5155264;27;20038;-77
2022/03/07 05:20:22;;;;;;;5.78;3.47;;;-1.00;99.90;;;;;;5155671;27;20465;-79
2022/03/07 05:22:48;;;;;;;5.93;3.53;;;-1.00;99.90;;;;;;5103613;27;20050;-79
2022/03/07 05:25:14;;;;;;;5.78;3.50;;;-1.10;99.90;;;;;;5155368;27;20153;-78
2022/03/07 05:27:40;;;;;;;6.88;3.90;;;-1.10;99.90;;;;;;5155702;27;20461;-78
2022/03/07 05:30:07;;;;;;;5.10;3.50;;;-1.10;99.90;;;;;;5155591;27;20081;-78
2022/03/07 05:32:32;;;;;;;4.63;3.20;;;-1.10;99.90;;;;;;5135493;27;20181;-78
2022/03/07 05:34:58;;;;;;;4.53;3.72;;;-1.10;99.90;;;;;;5155379;27;20554;-78
2022/03/07 05:37:24;;;;;;;5.60;4.15;;;-1.10;99.90;;;;;;5154916;27;20046;-79
2022/03/07 05:39:50;;;;;;;5.05;3.20;;;-1.10;99.90;;;;;;5120068;27;20046;-79
2022/03/07 05:42:15;;;;;;;6.00;3.60;;;-1.10;99.90;;;;;;5136798;27;20251;-79
2022/03/07 05:44:41;;;;;;;6.63;3.60;;;-1.10;99.90;;;;;;5120156;27;20121;-78
2022/03/07 05:47:07;;;;;;;6.38;3.95;;;-1.10;99.90;;;;;;5155332;27;20065;-80
2022/03/07 05:49:32;;;;;;;5.15;3.50;;;-1.10;99.90;;;;;;5154570;27;20045;-80
2022/03/07 05:51:58;;;;;;;4.78;3.47;;;-1.10;99.90;;;;;;5155116;27;20049;-79
2022/03/07 05:54:24;;;;;;;4.35;3.30;;;-1.10;99.90;;;;;;5154751;27;20042;-80
2022/03/07 05:56:49;;;;;;;5.75;3.80;;;-1.10;99.90;;;;;;5119592;27;20125;-79
2022/03/07 05:59:15;;;;;;;7.75;3.25;;;-1.00;99.90;;;;;;5155153;27;20126;-79
2022/03/07 06:01:40;;;;;;;5.18;4.00;;;-1.00;99.90;;;;;;5155188;27;20046;-79
2022/03/07 06:04:06;;;;;;;6.38;3.38;;;-1.00;99.90;;;;;;5155124;27;20042;-79
2022/03/07 06:06:32;;;;;;;4.95;3.20;;;-1.10;99.90;;;;;;5119406;27;20062;-79
2022/03/07 06:08:57;;;;;;;5.43;3.33;;;-1.00;99.90;;;;;;5135657;27;20520;-78
2022/03/07 06:11:23;;;;;;;5.47;3.40;;;-1.10;99.90;;;;;;5136025;27;20042;-78
2022/03/07 06:13:49;;;;;;;5.00;3.20;;;-1.10;99.90;;;;;;5154933;27;20187;-78
2022/03/07 06:16:14;;;;;;;4.57;3.10;;;-1.10;99.90;;;;;;5154820;27;20072;-78
2022/03/07 06:18:40;;;;;;;6.00;3.30;;;-1.10;99.90;;;;;;5154375;27;20052;-79
2022/03/07 06:21:05;;;;;;;6.32;3.67;;;-1.10;99.90;;;;;;5154729;27;20410;-78
2022/03/07 06:23:31;;;;;;;3.92;2.90;;;-1.10;99.90;;;;;;5135990;27;20042;-78
2022/03/07 06:25:57;;;;;;;6.13;3.35;;;-1.10;99.90;;;;;;5136247;27;20054;-78
2022/03/07 06:28:23;;;;;;;5.78;3.45;;;-1.10;99.90;;;;;;5135928;27;20043;-79
2022/03/07 06:30:49;;;;;;;5.03;2.70;;;-1.00;99.90;;;;;;5154582;27;20034;-79
2022/03/07 06:33:15;;;;;;;5.20;2.90;;;-1.00;99.90;;;;;;5154268;27;20066;-78
2022/03/07 06:35:41;;;;;;;3.65;2.88;;;-1.00;99.90;;;;;;5135693;27;20054;-79
2022/03/07 06:38:07;;;;;;;5.47;2.92;;;-1.00;99.90;;;;;;5136178;27;20498;-79
2022/03/07 06:40:32;;;;;;;4.93;2.90;;;-1.00;99.90;;;;;;5154085;27;20121;-78
2022/03/07 06:43:00;;;;;;;7.10;3.70;;;-1.00;99.90;;;;;;5154666;27;20038;-78
2022/03/07 06:45:26;;;;;;;5.03;3.28;;;-1.00;99.90;;;;;;5135952;27;20101;-78
2022/03/07 06:47:52;;;;;;;7.18;3.50;;;-1.00;99.90;;;;;;5136172;27;20078;-78
2022/03/07 06:50:18;;;;;;;7.18;3.90;;;-1.00;99.90;;;;;;5154202;27;20402;-76
2022/03/07 06:52:43;;;;;;;8.13;3.22;;;-1.00;99.90;;;;;;5135454;27;20050;-77
2022/03/07 06:55:09;;;;;;;6.10;2.92;;;-1.00;99.90;;;;;;5136065;27;20070;-77
2022/03/07 06:57:35;;;;;;;5.35;2.70;;;-1.00;99.90;;;;;;5135590;27;20387;-77
2022/03/07 07:00:00;;;;;;;6.28;3.30;;;-1.00;99.90;;;;;;5136092;27;20511;-78
2022/03/07 07:02:26;;;;;;;8.77;3.30;;;-1.00;99.90;;;;;;5154219;27;20126;-78
2022/03/07 07:04:52;;;;;;;6.03;3.40;;;-1.00;99.90;;;;;;5135931;27;20088;-78
2022/03/07 07:07:17;;;;;;;5.30;3.50;;;-0.90;99.90;;;;;;5153934;27;20065;-78
2022/03/07 07:09:43;;;;;;;4.60;3.47;;;-1.00;99.90;;;;;;5153865;27;20043;-79
2022/03/07 07:12:09;;;;;;;4.72;3.60;;;-0.90;99.90;;;;;;5154104;27;20431;-78
2022/03/07 07:14:36;;;;;;;6.60;3.20;;;-0.90;99.90;;;;;;5118347;27;20387;-78
2022/03/07 07:17:02;;;;;;;5.50;3.65;;;-0.90;99.90;;;;;;5102264;27;20045;-79
2022/03/07 07:19:28;;;;;;;4.53;3.53;;;-0.80;99.90;;;;;;5153958;27;20038;-79
2022/03/07 07:21:54;;;;;;;5.85;3.88;;;-0.80;99.90;;;;;;5139882;27;20080;-79
2022/03/07 07:24:19;;;;;;;4.80;3.70;;;-0.80;99.90;;;;;;5158291;27;20042;-79
2022/03/07 07:26:45;;;;;;;6.38;3.97;;;-0.80;99.90;;;;;;5157821;27;20057;-78
2022/03/07 07:29:10;;;;;;;5.78;4.03;;;-0.80;99.90;;;;;;5158232;27;20047;-79
2022/03/07 07:31:36;;;;;;;5.20;3.90;;;-0.70;99.90;;;;;;5157576;27;20413;-79
2022/03/07 07:34:02;;;;;;;5.07;3.88;;;-0.70;99.90;;;;;;5158023;27;20070;-79
2022/03/07 07:36:27;;;;;;;8.00;4.18;;;-0.60;99.90;;;;;;5157960;27;20059;-78
2022/03/07 07:38:53;;;;;;;7.35;4.75;;;-0.60;99.90;;;;;;5122089;27;20039;-78
2022/03/07 07:41:19;;;;;;;8.07;4.90;;;-0.60;99.90;;;;;;5139363;27;20039;-78
2022/03/07 07:43:44;;;;;;;6.57;5.03;;;-0.50;99.90;;;;;;5157424;27;20047;-78
2022/03/07 07:46:10;;;;;;;6.57;4.93;;;-0.40;99.90;;;;;;5157828;27;20039;-78
2022/03/07 07:48:35;;;;;;;6.63;4.57;;;-0.40;99.90;;;;;;5157714;27;20086;-79
2022/03/07 07:51:01;;;;;;;6.30;4.78;;;-0.40;99.90;;;;;;5157819;27;20039;-78
2022/03/07 07:53:27;;;;;;;9.32;5.15;;;-0.20;99.90;;;;;;5139248;27;20046;-78
2022/03/07 07:55:52;;;;;;;7.40;4.63;;;-0.20;99.90;;;;;;5157217;27;20042;-77
2022/03/07 07:58:18;;;;;;;6.80;5.20;;;-0.20;99.90;;;;;;5139190;27;20467;-78
2022/03/07 08:00:43;;;;;;;8.95;6.40;;;-0.20;99.90;;;;;;5138991;27;20055;-79
2022/03/07 08:03:09;;;;;;;13.13;6.57;;;-0.10;99.90;;;;;;5139133;27;20367;-78
2022/03/07 08:05:35;;;;;;;11.95;6.05;;;-0.10;99.90;;;;;;5138657;27;20042;-78
2022/03/07 08:08:01;;;;;;;11.07;6.18;;;0.00;99.90;;;;;;5157533;27;20099;-77
2022/03/07 08:10:27;;;;;;;9.65;6.28;;;0.10;99.90;;;;;;5139109;27;20086;-77
2022/03/07 08:12:53;;;;;;;9.75;6.78;;;0.10;99.90;;;;;;5156808;27;20066;-78
2022/03/07 08:15:19;;;;;;;10.57;6.25;;;0.20;99.90;;;;;;5157320;27;20034;-77
2022/03/07 08:17:46;;;;;;;11.70;6.55;;;0.30;99.90;;;;;;5156844;27;20038;-78
2022/03/07 08:20:13;;;;;;;9.00;6.75;;;0.40;99.90;;;;;;5121661;27;20539;-77
2022/03/07 08:22:39;;;;;;;8.60;6.60;;;0.40;99.90;;;;;;5138382;27;20125;-78
2022/03/07 08:25:05;;;;;;;10.25;6.57;;;0.50;99.90;;;;;;5157195;27;20126;-77
2022/03/07 08:27:32;;;;;;;14.45;8.50;;;0.50;99.90;;;;;;5156931;27;20043;-77
2022/03/07 08:29:58;;;;;;;13.63;9.10;;;0.70;99.90;;;;;;5156600;27;20050;-77
2022/03/07 08:32:24;;;;;;;12.13;8.57;;;0.60;99.90;;;;;;5138197;27;20050;-76
2022/03/07 08:34:49;;;;;;;14.07;9.43;;;0.70;99.90;;;;;;5156566;27;20058;-75
2022/03/07 08:37:15;;;;;;;11.52;9.48;;;0.70;99.90;;;;;;5157408;27;20042;-76
2022/03/07 08:39:40;;;;;;;13.25;10.57;;;0.80;99.90;;;;;;5156575;27;20098;-79
2022/03/07 08:42:06;;;;;;;19.05;11.02;;;0.80;99.90;;;;;;5156876;27;20130;-78
2022/03/07 08:44:33;;;;;;;16.42;11.27;;;0.90;99.90;;;;;;5121247;27;20437;-78
2022/03/07 08:46:59;;;;;;;16.48;12.52;;;1.00;99.90;;;;;;5156343;27;20325;-78
2022/03/07 08:49:25;;;;;;;18.52;13.00;;;1.00;99.90;;;;;;5156667;27;20042;-78
2022/03/07 08:51:50;;;;;;;19.67;13.93;;;1.10;99.90;;;;;;5156220;27;20049;-78
2022/03/07 08:54:17;;;;;;;16.02;12.75;;;1.10;99.90;;;;;;5156584;27;20082;-77
2022/03/07 08:56:43;;;;;;;16.90;13.20;;;1.20;99.90;;;;;;5156153;27;20038;-79
2022/03/07 08:59:09;;;;;;;19.08;12.55;;;1.30;99.90;;;;;;5156467;27;20047;-78
2022/03/07 09:01:35;;;;;;;22.60;12.68;;;1.40;99.90;;;;;;5138132;27;20042;-78
2022/03/07 09:04:01;;;;;;;17.67;12.25;;;1.50;99.90;;;;;;5137678;27;20038;-79
2022/03/07 09:06:26;;;;;;;16.52;11.63;;;1.50;99.90;;;;;;5156352;27;20049;-79
2022/03/07 09:08:52;;;;;;;15.80;11.55;;;1.50;99.90;;;;;;5155953;27;20466;-79
2022/03/07 09:11:18;;;;;;;18.92;11.82;;;1.60;99.90;;;;;;5156130;27;20486;-79
2022/03/07 09:13:43;;;;;;;14.52;10.93;;;1.60;99.90;;;;;;5120323;27;20043;-79
2022/03/07 09:16:09;;;;;;;17.15;11.20;;;1.70;99.90;;;;;;5137660;27;20042;-78
2022/03/07 09:18:35;;;;;;;12.10;8.82;;;1.80;99.90;;;;;;5156028;27;20047;-78
2022/03/07 09:21:02;;;;;;;14.18;9.05;;;1.90;99.90;;;;;;5137192;27;20531;-78
2022/03/07 09:23:33;;;;;;;11.85;7.80;;;1.90;99.90;;;;;;5137905;27;20462;-79
2022/03/07 09:25:59;;;;;;;11.77;8.50;;;2.10;99.90;;;;;;5137259;27;20082;-79
2022/03/07 09:28:25;;;;;;;11.52;7.22;;;2.20;99.90;;;;;;5155570;27;20047;-79
2022/03/07 09:30:51;;;;;;;14.00;8.00;;;2.30;99.90;;;;;;5155342;27;20050;-80
2022/03/07 09:33:16;;;;;;;11.98;6.57;;;2.40;99.90;;;;;;5155903;27;20424;-79
2022/03/07 09:35:42;;;;;;;13.15;7.30;;;2.50;99.90;;;;;;5155755;27;20443;-79
2022/03/07 09:38:08;;;;;;;10.00;6.85;;;2.60;99.90;;;;;;5155221;27;20054;-79
2022/03/07 09:40:33;;;;;;;9.23;6.18;;;2.60;99.90;;;;;;5155660;27;20483;-79
2022/03/07 09:42:59;;;;;;;8.35;6.35;;;2.70;99.90;;;;;;5136822;27;20394;-80
2022/03/07 09:45:25;;;;;;;10.27;5.93;;;2.80;99.90;;;;;;5137163;27;20039;-80
2022/03/07 09:47:50;;;;;;;9.63;6.00;;;2.90;99.90;;;;;;5119530;27;20069;-78
2022/03/07 09:50:16;;;;;;;9.57;5.80;;;3.00;99.90;;;;;;5120235;27;20045;-80
2022/03/07 09:52:44;;;;;;;8.60;5.25;;;3.00;99.90;;;;;;5155429;27;20050;-79
2022/03/07 09:55:13;;;;;;;9.98;5.20;;;3.10;99.90;;;;;;5155097;27;20142;-79
2022/03/07 09:57:39;;;;;;;8.80;5.47;;;3.20;99.90;;;;;;5137104;27;20478;-80
2022/03/07 10:00:06;;;;;;;9.23;5.55;;;3.40;99.90;;;;;;5155068;27;20176;-79
2022/03/07 10:02:31;;;;;;;6.88;5.22;;;3.70;99.90;;;;;;5137006;27;20039;-80
2022/03/07 10:05:00;;;;;;;7.35;5.03;;;3.90;99.90;;;;;;5106799;27;20069;-76
2022/03/07 10:07:25;;;;;;;7.20;4.82;;;4.00;99.90;;;;;;5146547;27;20086;-77
2022/03/07 10:10:02;;;;;;;7.53;4.88;;;4.10;99.90;;;;;;5128736;27;20039;-79
2022/03/07 10:12:28;;;;;;;9.02;4.18;;;4.30;99.90;;;;;;5143386;27;20039;-80
2022/03/07 10:14:54;;;;;;;8.57;3.95;;;4.40;99.90;;;;;;5154820;27;20151;-80
2022/03/07 10:17:20;;;;;;;9.32;3.92;;;4.50;99.90;;;;;;5136709;27;20045;-80
2022/03/07 10:19:46;;;;;;;7.10;3.88;;;4.60;99.90;;;;;;5155028;27;20055;-80
2022/03/07 10:22:29;;;;;;;5.97;3.42;;;4.60;99.90;;;;;;5136492;27;20050;-80
2022/03/07 10:25:06;;;;;;;7.35;3.65;;;4.60;99.90;;;;;;5136271;27;20502;-80
2022/03/07 10:27:34;;;;;;;11.63;4.22;;;4.70;99.90;;;;;;5119601;27;20129;-80
2022/03/07 10:30:00;;;;;;;6.18;3.90;;;4.80;99.90;;;;;;5136129;27;20098;-79
2022/03/07 10:32:26;;;;;;;7.95;3.72;;;4.80;99.90;;;;;;5136320;27;20125;-79
2022/03/07 10:34:51;;;;;;;6.40;3.60;;;4.80;99.90;;;;;;5136022;27;20188;-79
2022/03/07 10:37:17;;;;;;;5.53;3.40;;;4.80;99.90;;;;;;5154775;27;20042;-79
2022/03/07 10:39:52;;;;;;;6.50;3.15;;;4.80;99.90;;;;;;5136327;27;20043;-80
2022/03/07 10:42:19;;;;;;;8.50;4.00;;;4.80;99.90;;;;;;5136045;27;20394;-78
2022/03/07 10:44:45;;;;;;;6.82;3.80;;;4.80;99.90;;;;;;5119394;27;20050;-78
2022/03/07 10:47:16;;;;;;;10.35;3.28;;;4.90;99.90;;;;;;5135713;27;20039;-79
2022/03/07 10:49:48;;;;;;;;;;;5.10;99.90;;;;;;5136800;27;20042;-79
2022/03/07 10:52:14;;;;;;;4.88;3.03;;;5.20;99.90;;;;;;5135585;27;19918;-80
2022/03/07 10:54:40;;;;;;;7.47;2.92;;;5.20;99.90;;;;;;5135603;27;20088;-79
2022/03/07 10:57:07;;;;;;;5.07;2.90;;;5.30;99.90;;;;;;5118544;27;20426;-79
2022/03/07 10:59:33;;;;;;;7.22;3.42;;;5.30;99.90;;;;;;5154804;27;20039;-80
2022/03/07 11:02:00;;;;;;;7.32;3.22;;;5.40;99.90;;;;;;5135682;27;20039;-80
2022/03/07 11:04:27;;;;;;;6.07;3.05;;;5.40;99.90;;;;;;5136543;27;20043;-81
2022/03/07 11:06:52;;;;;;;5.60;3.00;;;5.50;99.90;;;;;;5154614;27;20089;-79
2022/03/07 11:09:18;;;;;;;6.75;3.00;;;5.60;99.90;;;;;;5135572;27;20082;-79
2022/03/07 11:11:44;;;;;;;5.97;3.00;;;5.70;99.90;;;;;;5154293;27;20189;-79
2022/03/07 11:14:09;;;;;;;4.20;3.00;;;5.80;99.90;;;;;;5118345;27;20476;-79
2022/03/07 11:16:35;;;;;;;6.90;3.03;;;5.90;99.90;;;;;;5135887;27;20045;-79
2022/03/07 11:19:01;;;;;;;5.57;2.70;;;6.00;99.90;;;;;;5118465;27;20118;-79
2022/03/07 11:21:27;;;;;;;4.65;2.40;;;6.10;99.90;;;;;;5135930;27;20136;-79
2022/03/07 11:23:53;;;;;;;4.65;2.53;;;6.20;99.90;;;;;;5118745;27;20128;-79
2022/03/07 11:26:20;;;;;;;4.07;2.45;;;6.20;99.90;;;;;;5135435;27;20398;-80
2022/03/07 11:28:47;;;;;;;6.15;2.90;;;6.30;99.90;;;;;;5136116;27;20054;-79
2022/03/07 11:31:23;;;;;;;3.17;2.10;;;6.40;99.90;;;;;;5153614;27;20475;-79
2022/03/07 11:33:49;;;;;;;5.53;2.20;;;6.40;99.90;;;;;;5153702;27;20108;-80
2022/03/07 11:36:17;;;;;;;2.88;2.10;;;6.30;99.90;;;;;;5153656;27;20054;-80
2022/03/07 11:38:50;;;;;;;4.70;1.95;;;6.40;99.90;;;;;;5135862;27;20056;-79
2022/03/07 11:41:22;;;;;;;5.72;2.22;;;6.30;99.90;;;;;;5153939;27;20049;-80
2022/03/07 11:43:53;;;;;;;4.30;2.20;;;6.30;99.90;;;;;;5135890;27;20050;-80
2022/03/07 11:46:31;;;;;;;2.97;1.83;;;6.30;99.90;;;;;;5153646;27;20051;-80
2022/03/07 11:48:57;;;;;;;4.40;1.90;;;6.40;99.90;;;;;;5155410;27;20042;-76
2022/03/07 11:51:27;;;;;;;2.28;1.30;;;6.50;99.90;;;;;;5157067;27;20111;-76
2022/03/07 11:53:54;;;;;;;2.40;1.20;;;6.60;99.90;;;;;;5104247;27;20051;-77
2022/03/07 11:56:40;;;;;;;2.65;1.50;;;6.80;99.90;;;;;;5137801;27;20459;-78
2022/03/07 11:59:08;;;;;;;1.90;1.50;;;7.00;99.90;;;;;;5152710;27;20058;-80
2022/03/07 12:01:34;;;;;;;3.40;1.80;;;7.10;99.90;;;;;;5135680;27;20047;-79
2022/03/07 12:04:36;;;;;;;3.40;1.70;;;7.30;99.90;;;;;;5153842;27;20129;-79
2022/03/07 12:07:02;;;;;;;2.25;1.60;;;7.30;98.70;;;;;;5154974;27;20043;-79
2022/03/07 12:09:32;;;;;;;2.88;1.48;;;7.30;99.90;;;;;;5157044;27;20148;-79
2022/03/07 12:12:07;;;;;;;;;;;7.40;99.40;;;;;;5140240;27;20042;-80
2022/03/07 12:14:38;;;;;;;4.25;1.63;;;7.30;97.70;;;;;;5138948;27;19919;-80
2022/03/07 12:17:18;;;;;;;3.53;1.63;;;7.30;99.90;;;;;;5139102;27;20050;-79
2022/03/07 12:19:44;;;;;;;2.50;1.55;;;7.40;97.90;;;;;;5121847;27;20051;-80
2022/03/07 12:22:15;;;;;;;3.28;1.00;;;7.50;97.40;;;;;;5137406;27;20047;-79
2022/03/07 12:24:41;;;;;;;3.28;1.17;;;7.60;94.30;;;;;;5157330;27;20050;-80
2022/03/07 12:27:07;;;;;;;1.40;1.10;;;7.60;94.10;;;;;;5138783;27;20406;-80
2022/03/07 12:29:33;;;;;;;4.63;1.00;;;7.70;93.40;;;;;;5138208;27;20110;-80
2022/03/07 12:32:00;;;;;;;1.92;1.20;;;7.80;92.60;;;;;;5157038;27;20049;-80
2022/03/07 12:34:27;;;;;;;2.35;1.20;;;7.70;91.80;;;;;;5117143;27;20176;-80
2022/03/07 12:37:00;;;;;;;3.72;1.50;;;7.80;91.60;;;;;;5118333;27;20380;-80
2022/03/07 12:39:31;;;;;;;3.60;1.40;;;7.90;89.20;;;;;;5135977;27;20375;-80
2022/03/07 12:42:01;;;;;;;5.45;1.50;;;8.00;91.20;;;;;;5135016;27;20042;-80
2022/03/07 12:44:27;;;;;;;2.70;1.52;;;8.00;90.40;;;;;;5134487;27;20058;-80
2022/03/07 12:46:52;;;;;;;3.17;1.48;;;8.10;90.20;;;;;;5134793;27;20039;-80